AIRPORT ID: KTNP

DATE: 2021-12-01 ZULU TIME: 14.55 LOCAL TIME: 6.55


METAR KTNP 011455Z AUTO 25007KT 10SM 12/M08 A3025

ALTIMETER: A3025 Q1024

DENSITY ALT: 1700 Ft

WIND DIRECT: 260

WIND SPEED: 7 Gust

WIND CONDITIONS:

VISIBILTY: 10SM 9999M

TEMPERATURE: 54 F 12 C

DEW POINT: 18 F -8 C

HUMID: 24%

LCL: Above 5,000 feet

RADIO CHECK: 0

ADVISARIES: 0

GREETINGS: 0

CONVERSATIONS: 0